createdAt,value
2024-02-12T00:01:33.167Z,92570.22
2024-02-12T00:03:59.843Z,92569.34
2024-02-12T00:06:26.875Z,92564.38
2024-02-12T00:08:55.080Z,92558.63
2024-02-12T00:11:21.884Z,92559.06
2024-02-12T00:13:48.641Z,92564.81
2024-02-12T00:16:15.345Z,92566.56
2024-02-12T00:18:41.997Z,92568.56
2024-02-12T00:21:09.102Z,92564.59
2024-02-12T00:23:35.761Z,92564.59
2024-02-12T00:26:03.917Z,92569.91
2024-02-12T00:28:30.531Z,92564.50
2024-02-12T00:30:57.100Z,92563.47
2024-02-12T00:33:23.775Z,92566.13
2024-02-12T00:35:50.368Z,92569.09
2024-02-12T00:38:17.104Z,92569.34
2024-02-12T00:40:43.649Z,92572.34
2024-02-12T00:43:11.641Z,92578.41
2024-02-12T00:45:38.183Z,92573.41
2024-02-12T00:48:05.743Z,92576.06
2024-02-12T00:50:32.702Z,92575.63
2024-02-12T00:52:59.472Z,92577.53
2024-02-12T00:55:26.176Z,92575.97
2024-02-12T00:57:52.726Z,92573.75
2024-02-12T01:00:21.137Z,92572.56
2024-02-12T01:02:47.805Z,92578.63
2024-02-12T01:05:14.455Z,92578.97
2024-02-12T01:07:41.848Z,92578.97
2024-02-12T01:10:09.367Z,92583.06
2024-02-12T01:12:36.378Z,92582.06
2024-02-12T01:15:03.311Z,92587.59
2024-02-12T01:17:31.362Z,92591.44
2024-02-12T01:19:58.110Z,92584.28
2024-02-12T01:22:24.742Z,92585.06
2024-02-12T01:24:51.526Z,92598.09
2024-02-12T01:27:18.163Z,92586.91
2024-02-12T01:29:44.783Z,92583.41
2024-02-12T01:32:11.419Z,92584.50
2024-02-12T01:34:39.470Z,92582.84
2024-02-12T01:37:06.056Z,92586.63
2024-02-12T01:39:32.670Z,92585.84
2024-02-12T01:41:59.337Z,92582.84
2024-02-12T01:44:25.950Z,92581.63
2024-02-12T01:46:52.604Z,92581.63
2024-02-12T01:49:20.013Z,92587.47
2024-02-12T01:51:49.594Z,92586.69
2024-02-12T01:54:16.844Z,92582.06
2024-02-12T01:56:45.481Z,92577.53
2024-02-12T01:59:12.276Z,92575.00
2024-02-12T02:01:39.214Z,92574.56
2024-02-12T02:04:06.285Z,92573.44
2024-02-12T02:06:32.918Z,92576.97
2024-02-12T02:09:00.830Z,92570.47
2024-02-12T02:11:27.477Z,92574.00
2024-02-12T02:13:54.776Z,92578.09
2024-02-12T02:16:21.516Z,92579.97
2024-02-12T02:18:49.167Z,92574.03
2024-02-12T02:21:15.804Z,92581.44
2024-02-12T02:23:42.684Z,92582.75
2024-02-12T02:26:10.850Z,92585.84
2024-02-12T02:28:37.542Z,92580.22
2024-02-12T02:31:04.553Z,92583.84
2024-02-12T02:33:31.754Z,92583.84
2024-02-12T02:35:58.591Z,92594.47
2024-02-12T02:38:25.334Z,92593.69
2024-02-12T02:40:51.952Z,92594.47
2024-02-12T02:43:19.861Z,92592.38
2024-02-12T02:45:46.455Z,92582.66
2024-02-12T02:48:13.138Z,92583.63
2024-02-12T02:50:39.818Z,92589.69
2024-02-12T02:53:06.583Z,92586.72
2024-02-12T02:55:35.834Z,92587.28
2024-02-12T02:58:02.405Z,92591.69
2024-02-12T03:00:30.671Z,92589.34
2024-02-12T03:02:57.406Z,92590.47
2024-02-12T03:05:24.254Z,92599.63
2024-02-12T03:07:51.059Z,92602.41
2024-02-12T03:10:17.878Z,92597.88
2024-02-12T03:12:45.812Z,92600.09
2024-02-12T03:15:12.696Z,92602.16
2024-02-12T03:17:42.887Z,92606.59
2024-02-12T03:20:11.024Z,92605.47
2024-02-12T03:22:38.426Z,92612.75
2024-02-12T03:25:06.060Z,92626.13
2024-02-12T03:27:32.859Z,92622.81
2024-02-12T03:29:59.584Z,92634.00
2024-02-12T03:32:29.238Z,92642.41
2024-02-12T03:34:57.384Z,92626.16
2024-02-12T03:37:24.289Z,92634.56
2024-02-12T03:39:51.172Z,92639.09
2024-02-12T03:42:17.805Z,92645.19
2024-02-12T03:44:44.516Z,92635.31
2024-02-12T03:47:11.277Z,92643.72
2024-02-12T03:49:39.553Z,92640.00
2024-02-12T03:52:07.647Z,92650.59
2024-02-12T03:54:34.263Z,92649.56
2024-02-12T03:57:00.974Z,92656.63
2024-02-12T03:59:27.717Z,92663.16
2024-02-12T04:01:54.341Z,92662.19
2024-02-12T04:04:22.591Z,92661.84
2024-02-12T04:06:49.267Z,92667.59
2024-02-12T04:09:17.581Z,92678.66
2024-02-12T04:11:44.408Z,92668.06
2024-02-12T04:14:11.575Z,92672.25
2024-02-12T04:16:38.387Z,92682.75
2024-02-12T04:19:05.160Z,92691.03
2024-02-12T04:21:31.853Z,92684.97
2024-02-12T04:23:58.713Z,92690.59
2024-02-12T04:26:26.937Z,92693.13
2024-02-12T04:28:53.688Z,92690.81
2024-02-12T04:31:20.663Z,92689.59
2024-02-12T04:33:47.492Z,92684.63
2024-02-12T04:36:14.250Z,92692.25
2024-02-12T04:38:40.927Z,92703.63
2024-02-12T04:41:07.599Z,92699.41
2024-02-12T04:43:35.791Z,92691.47
2024-02-12T04:46:02.718Z,92703.63
2024-02-12T04:48:29.270Z,92707.50
2024-02-12T04:50:55.813Z,92705.97
2024-02-12T04:53:22.389Z,92706.72
2024-02-12T04:55:49.277Z,92705.41
2024-02-12T04:58:16.030Z,92710.41
2024-02-12T05:00:43.952Z,92711.72
2024-02-12T05:03:10.471Z,92713.16
2024-02-12T05:05:37.111Z,92701.66
2024-02-12T05:08:04.405Z,92702.97
2024-02-12T05:10:31.040Z,92712.13
2024-02-12T05:12:57.581Z,92713.25
2024-02-12T05:15:24.126Z,92701.00
2024-02-12T05:17:52.052Z,92713.59
2024-02-12T05:20:21.996Z,92714.72
2024-02-12T05:22:48.678Z,92713.81
2024-02-12T05:25:15.470Z,92720.66
2024-02-12T05:27:42.012Z,92725.97
2024-02-12T05:30:08.882Z,92725.66
2024-02-12T05:32:35.528Z,92728.63
2024-02-12T05:35:03.838Z,92730.75
2024-02-12T05:37:30.350Z,92732.16
2024-02-12T05:39:57.131Z,92735.13
2024-02-12T05:42:23.649Z,92734.81
2024-02-12T05:44:50.241Z,92739.38
2024-02-12T05:47:17.039Z,92743.88
2024-02-12T05:49:44.618Z,92750.31
2024-02-12T05:52:12.766Z,92751.84
2024-02-12T05:54:39.340Z,92748.53
2024-02-12T05:57:05.958Z,92750.97
2024-02-12T05:59:32.589Z,92754.41
2024-02-12T06:01:59.270Z,92754.41
2024-02-12T06:04:25.791Z,92760.50
2024-02-12T06:06:52.628Z,92762.94
2024-02-12T06:09:20.748Z,92768.34
2024-02-12T06:11:47.278Z,92764.94
2024-02-12T06:14:13.829Z,92767.25
2024-02-12T06:16:40.355Z,92770.03
2024-02-12T06:19:06.909Z,92773.03
2024-02-12T06:21:33.496Z,92777.41
2024-02-12T06:23:59.996Z,92772.91
2024-02-12T06:26:29.071Z,92781.94
2024-02-12T06:28:55.727Z,92773.66
2024-02-12T06:31:22.261Z,92779.63
2024-02-12T06:33:49.018Z,92784.78
2024-02-12T06:36:15.729Z,92781.72
2024-02-12T06:38:42.377Z,92788.97
2024-02-12T06:41:08.958Z,92795.13
2024-02-12T06:43:36.810Z,92796.31
2024-02-12T06:46:04.517Z,92789.31
2024-02-12T06:48:31.362Z,92807.88
2024-02-12T06:50:58.918Z,92799.59
2024-02-12T06:53:25.432Z,92804.47
2024-02-12T06:55:53.909Z,92805.41
2024-02-12T06:58:20.558Z,92803.69
2024-02-12T07:00:48.744Z,92813.84
2024-02-12T07:03:15.299Z,92811.19
2024-02-12T07:05:41.862Z,92813.06
2024-02-12T07:08:15.596Z,92815.06
2024-02-12T07:10:45.106Z,92811.00
2024-02-12T07:13:23.754Z,92815.22
2024-02-12T07:15:51.793Z,92820.31
2024-02-12T07:18:18.535Z,92819.66
2024-02-12T07:20:45.210Z,92822.13
2024-02-12T07:23:11.971Z,92832.66
2024-02-12T07:25:38.634Z,92828.34
2024-02-12T07:28:05.410Z,92835.91
2024-02-12T07:30:31.979Z,92842.81
2024-02-12T07:33:00.341Z,92840.94
2024-02-12T07:35:27.323Z,92843.88
2024-02-12T07:37:53.886Z,92851.78
2024-02-12T07:40:23.002Z,92857.53
2024-02-12T07:42:49.649Z,92857.56
2024-02-12T07:45:16.352Z,92864.19
2024-02-12T07:47:43.421Z,92866.88
2024-02-12T07:50:11.712Z,92872.97
2024-02-12T07:52:40.357Z,92869.97
2024-02-12T07:55:12.113Z,92876.81
2024-02-12T07:57:38.872Z,92883.72
2024-02-12T08:00:06.596Z,92883.47
2024-02-12T08:02:33.155Z,92879.50
2024-02-12T08:04:59.769Z,92882.03
2024-02-12T08:07:41.222Z,92871.06
2024-02-12T08:10:17.126Z,92879.66
2024-02-12T08:12:44.135Z,92885.63
2024-02-12T08:15:12.480Z,92886.97
2024-02-12T08:17:42.216Z,92892.50
2024-02-12T08:20:12.283Z,92898.06
2024-02-12T08:22:40.356Z,92893.94
2024-02-12T08:25:07.279Z,92893.41
2024-02-12T08:27:33.865Z,92894.50
2024-02-12T08:30:00.411Z,92894.25
2024-02-12T08:32:27.115Z,92899.53
2024-02-12T08:34:53.769Z,92909.81
2024-02-12T08:37:20.397Z,92908.75
2024-02-12T08:39:48.505Z,92913.06
2024-02-12T08:42:15.075Z,92909.13
2024-02-12T08:44:41.762Z,92913.69
2024-02-12T08:47:08.455Z,92916.91
2024-02-12T08:49:35.090Z,92928.00
2024-02-12T08:52:01.694Z,92920.81
2024-02-12T08:54:28.279Z,92928.13
2024-02-12T08:56:56.198Z,92931.00
2024-02-12T08:59:23.320Z,92927.91
2024-02-12T09:01:50.119Z,92941.38
2024-02-12T09:04:16.754Z,92935.34
2024-02-12T09:06:43.699Z,92929.84
2024-02-12T09:09:10.567Z,92938.19
2024-02-12T09:11:37.116Z,92934.75
2024-02-12T09:14:05.228Z,92946.38
2024-02-12T09:16:31.814Z,92938.81
2024-02-12T09:18:58.563Z,92942.06
2024-02-12T09:21:25.203Z,92952.47
2024-02-12T09:23:51.757Z,92955.44
2024-02-12T09:26:18.565Z,92944.63
2024-02-12T09:28:45.195Z,92954.69
2024-02-12T09:31:13.068Z,92958.81
2024-02-12T09:33:39.849Z,92965.81
2024-02-12T09:36:06.839Z,92967.09
2024-02-12T09:38:36.339Z,92973.38
2024-02-12T09:41:03.243Z,92973.41
2024-02-12T09:43:33.510Z,92970.94
2024-02-12T09:46:03.164Z,92965.31
2024-02-12T09:48:31.525Z,92961.50
2024-02-12T09:50:59.074Z,92965.47
2024-02-12T09:53:28.271Z,92964.81
2024-02-12T09:55:56.783Z,92961.50
2024-02-12T09:58:23.444Z,92960.53
2024-02-12T10:00:50.027Z,92968.53
2024-02-12T10:03:16.862Z,92971.56
2024-02-12T10:05:45.937Z,92972.38
2024-02-12T10:08:20.124Z,92966.78
2024-02-12T10:10:47.492Z,92977.38
2024-02-12T10:13:15.227Z,92973.88
2024-02-12T10:15:42.337Z,92975.94
2024-02-12T10:18:09.492Z,92973.88
2024-02-12T10:20:36.102Z,92970.78
2024-02-12T10:23:04.575Z,92975.50
2024-02-12T10:25:31.506Z,92973.06
2024-02-12T10:27:58.098Z,92976.22
2024-02-12T10:30:24.786Z,92987.44
2024-02-12T10:32:52.787Z,92994.06
2024-02-12T10:35:21.962Z,92990.34
2024-02-12T10:37:50.995Z,92993.97
2024-02-12T10:40:27.361Z,92991.69
2024-02-12T10:42:55.340Z,93000.38
2024-02-12T10:45:22.289Z,92998.13
2024-02-12T10:47:49.959Z,93000.16
2024-02-12T10:50:17.199Z,92999.75
2024-02-12T10:52:44.073Z,93007.63
2024-02-12T10:55:11.433Z,93003.25
2024-02-12T10:57:41.284Z,92998.16
2024-02-12T11:00:09.260Z,93006.28
2024-02-12T11:02:42.103Z,93008.31
2024-02-12T11:05:09.222Z,93016.00
2024-02-12T11:07:37.990Z,93015.59
2024-02-12T11:10:06.764Z,93012.25
2024-02-12T11:12:33.491Z,93011.47
2024-02-12T11:15:01.947Z,93004.13
2024-02-12T11:17:29.205Z,93017.97
2024-02-12T11:19:56.069Z,93013.41
2024-02-12T11:22:26.597Z,93009.91
2024-02-12T11:24:53.376Z,93016.28
2024-02-12T11:27:20.238Z,93011.44
2024-02-12T11:29:47.808Z,93017.09
2024-02-12T11:32:21.715Z,93009.59
2024-02-12T11:34:48.631Z,93006.88
2024-02-12T11:37:18.953Z,93004.50
2024-02-12T11:39:56.304Z,93008.88
2024-02-12T11:42:23.171Z,93010.28
2024-02-12T11:44:49.918Z,93006.78
2024-02-12T11:47:28.392Z,93010.59
2024-02-12T11:49:55.217Z,93000.78
2024-02-12T11:52:22.590Z,93000.78
2024-02-12T11:54:49.266Z,93006.94
2024-02-12T11:57:18.687Z,92992.94
2024-02-12T11:59:45.955Z,93003.16
2024-02-12T12:02:12.834Z,93005.91
2024-02-12T12:04:42.893Z,93001.56
2024-02-12T12:07:15.726Z,93007.09
2024-02-12T12:09:42.530Z,93019.00
2024-02-12T12:12:09.277Z,93013.94
2024-02-12T12:14:36.863Z,93013.66
2024-02-12T12:17:28.834Z,93010.69
2024-02-12T12:19:51.938Z,93006.97
2024-02-12T12:22:18.806Z,92999.63
2024-02-12T12:24:45.570Z,93000.09
2024-02-12T12:27:22.626Z,92997.44
2024-02-12T12:29:49.442Z,92996.53
2024-02-12T12:32:16.155Z,93002.44
2024-02-12T12:34:45.830Z,93004.78
2024-02-12T12:37:14.018Z,92999.03
2024-02-12T12:39:40.978Z,92996.94
2024-02-12T12:42:08.017Z,92994.22
2024-02-12T12:44:35.408Z,93009.25
2024-02-12T12:47:02.200Z,93001.13
2024-02-12T12:49:29.124Z,93001.78
2024-02-12T12:51:56.900Z,92995.22
2024-02-12T12:54:26.064Z,93008.47
2024-02-12T12:56:52.855Z,93012.94
2024-02-12T12:59:19.673Z,93018.88
2024-02-12T13:01:46.476Z,93018.09
2024-02-12T13:04:13.482Z,93016.88
2024-02-12T13:06:40.689Z,93018.41
2024-02-12T13:09:07.838Z,93029.31
2024-02-12T13:11:36.706Z,93018.94
2024-02-12T13:14:03.690Z,93018.44
2024-02-12T13:16:30.354Z,93020.28
2024-02-12T13:18:56.923Z,93019.97
2024-02-12T13:21:23.801Z,93016.47
2024-02-12T13:23:50.506Z,93019.44
2024-02-12T13:26:17.115Z,93024.31
2024-02-12T13:28:45.310Z,93035.00
2024-02-12T13:31:14.466Z,93025.56
2024-02-12T13:33:42.572Z,93029.59
2024-02-12T13:36:09.838Z,93038.06
2024-02-12T13:38:36.697Z,93042.78
2024-02-12T13:41:03.387Z,93043.19
2024-02-12T13:43:30.034Z,93038.75
2024-02-12T13:45:58.337Z,93040.75
2024-02-12T13:48:25.285Z,93034.28
2024-02-12T13:50:51.944Z,93043.00
2024-02-12T13:53:18.845Z,93044.94
2024-02-12T13:55:45.688Z,93045.88
2024-02-12T13:58:12.374Z,93051.28
2024-02-12T14:00:55.524Z,93049.88
2024-02-12T14:03:27.574Z,93052.00
2024-02-12T14:05:54.537Z,93054.56
2024-02-12T14:08:21.257Z,93057.84
2024-02-12T14:10:48.024Z,93051.84
2024-02-12T14:13:14.643Z,93060.53
2024-02-12T14:16:04.400Z,93064.47
2024-02-12T14:18:30.622Z,93065.03
2024-02-12T14:20:57.314Z,93065.41
2024-02-12T14:23:24.048Z,93078.66
2024-02-12T14:25:50.733Z,93071.78
2024-02-12T14:28:17.506Z,93080.56
2024-02-12T14:30:44.411Z,93074.22
2024-02-12T14:33:11.179Z,93082.09
2024-02-12T14:35:39.938Z,93094.53
2024-02-12T14:38:06.994Z,93092.66
2024-02-12T14:40:33.614Z,93091.50
2024-02-12T14:43:00.376Z,93095.31
2024-02-12T14:45:26.979Z,93102.53
2024-02-12T14:47:53.724Z,93099.38
2024-02-12T14:50:20.667Z,93107.75
2024-02-12T14:52:48.750Z,93114.97
2024-02-12T14:55:16.565Z,93114.66
2024-02-12T14:57:43.934Z,93117.09
2024-02-12T15:00:11.599Z,93118.16
2024-02-12T15:02:38.169Z,93128.41
2024-02-12T15:05:06.078Z,93122.88
2024-02-12T15:07:32.796Z,93129.88
2024-02-12T15:10:00.722Z,93135.38
2024-02-12T15:12:27.362Z,93144.59
2024-02-12T15:14:54.025Z,93148.06
2024-02-12T15:17:20.785Z,93147.69
2024-02-12T15:19:48.171Z,93156.63
2024-02-12T15:22:14.760Z,93154.06
2024-02-12T15:24:41.368Z,93164.44
2024-02-12T15:27:09.565Z,93170.81
2024-02-12T15:29:36.711Z,93164.97
2024-02-12T15:32:05.783Z,93166.81
2024-02-12T15:34:32.710Z,93172.75
2024-02-12T15:36:59.398Z,93176.09
2024-02-12T15:39:26.027Z,93179.84
2024-02-12T15:41:52.846Z,93188.06
2024-02-12T15:44:20.852Z,93187.88
2024-02-12T15:46:47.459Z,93191.97
2024-02-12T15:49:14.417Z,93191.22
2024-02-12T15:51:45.401Z,93202.44
2024-02-12T15:54:11.941Z,93206.97
2024-02-12T15:56:38.602Z,93211.34
2024-02-12T15:59:05.242Z,93219.97
2024-02-12T16:01:33.184Z,93215.13
2024-02-12T16:04:00.147Z,93221.13
2024-02-12T16:06:26.995Z,93222.16
2024-02-12T16:08:54.826Z,93227.72
2024-02-12T16:11:23.388Z,93242.06
2024-02-12T16:13:53.935Z,93237.31
2024-02-12T16:16:20.676Z,93238.19
2024-02-12T16:18:49.040Z,93244.06
2024-02-12T16:21:15.681Z,93251.38
2024-02-12T16:23:42.359Z,93256.25
2024-02-12T16:26:09.140Z,93260.25
2024-02-12T16:28:35.783Z,93258.31
2024-02-12T16:31:02.613Z,93267.28
2024-02-12T16:33:29.357Z,93270.22
2024-02-12T16:35:57.728Z,93275.66
2024-02-12T16:38:24.931Z,93278.38
2024-02-12T16:40:51.919Z,93287.63
2024-02-12T16:43:18.640Z,93288.75
2024-02-12T16:45:45.364Z,93290.94
2024-02-12T16:48:14.657Z,93290.13
2024-02-12T16:50:43.169Z,93294.34
2024-02-12T16:53:11.482Z,93306.16
2024-02-12T16:55:40.367Z,93304.72
2024-02-12T16:58:07.292Z,93313.06
2024-02-12T17:00:34.051Z,93326.38
2024-02-12T17:03:01.518Z,93324.34
2024-02-12T17:05:28.607Z,93329.44
2024-02-12T17:08:05.978Z,93338.50
2024-02-12T17:10:36.588Z,93344.13
2024-02-12T17:13:03.504Z,93340.13
2024-02-12T17:15:30.487Z,93345.16
2024-02-12T17:17:59.708Z,93347.81
2024-02-12T17:20:26.665Z,93361.44
2024-02-12T17:22:55.984Z,93361.09
2024-02-12T17:25:22.924Z,93370.66
2024-02-12T17:27:51.041Z,93367.88
2024-02-12T17:30:18.126Z,93372.91
2024-02-12T17:32:44.935Z,93381.03
2024-02-12T17:35:12.393Z,93388.06
2024-02-12T17:37:40.049Z,93389.50
2024-02-12T17:40:08.113Z,93391.69
2024-02-12T17:42:35.282Z,93389.38
2024-02-12T17:45:04.065Z,93398.16
2024-02-12T17:47:47.194Z,93400.81
2024-02-12T17:50:14.220Z,93406.56
2024-02-12T17:53:24.883Z,93415.00
2024-02-12T17:59:47.147Z,93420.16
2024-02-12T18:02:21.226Z,93426.56
2024-02-12T18:04:48.123Z,93422.97
2024-02-12T18:07:21.073Z,93435.47
2024-02-12T18:09:52.225Z,93440.78
2024-02-12T18:12:41.629Z,93445.19
2024-02-12T18:15:16.754Z,93450.16
2024-02-12T18:18:06.643Z,93453.47
2024-02-12T18:20:33.430Z,93458.94
2024-02-12T18:22:59.984Z,93455.19
2024-02-12T18:25:27.277Z,93460.97
2024-02-12T18:27:53.865Z,93475.69
2024-02-12T18:30:20.685Z,93478.03
2024-02-12T18:32:52.283Z,93478.84
2024-02-12T18:35:20.896Z,93486.81
2024-02-12T18:37:50.316Z,93484.59
2024-02-12T18:40:18.999Z,93491.16
2024-02-12T18:42:46.555Z,93498.97
2024-02-12T18:45:14.682Z,93501.47
2024-02-12T18:47:41.513Z,93507.25
2024-02-12T18:50:09.041Z,93512.72
2024-02-12T18:52:41.159Z,93518.34
2024-02-12T18:55:13.436Z,93523.97
2024-02-12T18:57:41.711Z,93526.16
2024-02-12T19:01:07.004Z,93535.81
2024-02-12T19:09:45.295Z,93549.84
2024-02-12T19:12:12.099Z,93547.97
2024-02-12T19:14:38.794Z,93555.41
2024-02-12T19:17:05.633Z,93554.94
2024-02-12T19:19:32.245Z,93563.16
2024-02-12T19:21:58.982Z,93559.19
2024-02-12T19:24:25.516Z,93564.44
2024-02-12T19:26:53.479Z,93572.72
2024-02-12T19:29:20.491Z,93569.94
2024-02-12T19:31:47.426Z,93580.53
2024-02-12T19:34:14.076Z,93584.28
2024-02-12T19:36:40.696Z,93584.41
2024-02-12T19:39:07.282Z,93592.50
2024-02-12T19:41:34.029Z,93584.38
2024-02-12T19:44:02.150Z,93589.31
2024-02-12T19:46:29.961Z,93594.53
2024-02-12T19:48:56.590Z,93596.88
2024-02-12T19:51:23.175Z,93603.66
2024-02-12T19:53:49.981Z,93613.31
2024-02-12T19:56:16.948Z,93609.38
2024-02-12T19:58:44.086Z,93617.75
2024-02-12T20:01:12.124Z,93619.13
2024-02-12T20:03:38.836Z,93626.59
2024-02-12T20:06:05.994Z,93630.16
2024-02-12T20:08:32.966Z,93638.97
2024-02-12T20:10:59.601Z,93631.13
2024-02-12T20:13:26.203Z,93634.38
2024-02-12T20:15:52.829Z,93635.66
2024-02-12T20:18:20.987Z,93650.16
2024-02-12T20:20:47.865Z,93654.66
2024-02-12T20:23:14.741Z,93646.38
2024-02-12T20:25:41.351Z,93659.41
2024-02-12T20:28:08.046Z,93655.78
2024-02-12T20:30:35.010Z,93658.25
2024-02-12T20:33:01.743Z,93661.19
2024-02-12T20:35:29.824Z,93658.53
2024-02-12T20:38:01.124Z,93655.09
2024-02-12T20:40:27.870Z,93662.19
2024-02-12T20:42:54.435Z,93666.97
2024-02-12T20:45:21.172Z,93671.78
2024-02-12T20:47:48.001Z,93671.88
2024-02-12T20:50:15.011Z,93684.31
2024-02-12T20:52:43.000Z,93692.56
2024-02-12T20:55:09.975Z,93688.16
2024-02-12T20:57:36.635Z,93692.66
2024-02-12T21:00:05.986Z,93691.81
2024-02-12T21:02:32.588Z,93699.34
2024-02-12T21:04:59.178Z,93708.03
2024-02-12T21:07:25.788Z,93714.44
2024-02-12T21:09:53.821Z,93716.09
2024-02-12T21:12:20.457Z,93713.75
2024-02-12T21:14:47.033Z,93723.28
2024-02-12T21:17:13.736Z,93731.97
2024-02-12T21:19:40.539Z,93741.00
2024-02-12T21:22:07.151Z,93737.84
2024-02-12T21:24:33.713Z,93733.94
2024-02-12T21:27:01.632Z,93747.00
2024-02-12T21:29:28.232Z,93741.59
2024-02-12T21:31:55.187Z,93750.13
2024-02-12T21:34:21.932Z,93751.69
2024-02-12T21:36:48.678Z,93761.59
2024-02-12T21:39:15.449Z,93762.38
2024-02-12T21:41:42.094Z,93761.28
2024-02-12T21:44:10.580Z,93771.59
2024-02-12T21:46:37.831Z,93778.25
2024-02-12T21:49:04.543Z,93774.81
2024-02-12T21:51:31.163Z,93781.41
2024-02-12T21:53:57.781Z,93776.56
2024-02-12T21:56:24.491Z,93786.31
2024-02-12T21:58:51.105Z,93784.13
2024-02-12T22:01:19.267Z,93790.00
2024-02-12T22:03:46.076Z,93792.97
2024-02-12T22:06:12.955Z,93799.84
2024-02-12T22:08:39.701Z,93805.13
2024-02-12T22:11:06.365Z,93809.66
2024-02-12T22:13:33.161Z,93807.41
2024-02-12T22:15:59.725Z,93810.25
2024-02-12T22:18:30.580Z,93808.16
2024-02-12T22:20:57.331Z,93807.50
2024-02-12T22:23:23.984Z,93814.84
2024-02-12T22:25:50.632Z,93816.91
2024-02-12T22:28:17.200Z,93826.69
2024-02-12T22:30:43.886Z,93829.94
2024-02-12T22:33:10.786Z,93827.84
2024-02-12T22:35:39.077Z,93828.63
2024-02-12T22:38:05.794Z,93834.75
2024-02-12T22:40:32.549Z,93836.50
2024-02-12T22:42:59.119Z,93839.06
2024-02-12T22:45:25.661Z,93842.22
2024-02-12T22:47:53.255Z,93844.16
2024-02-12T22:50:21.305Z,93841.59
2024-02-12T22:52:49.607Z,93849.44
2024-02-12T22:55:16.852Z,93849.03
2024-02-12T22:57:43.507Z,93846.84
2024-02-12T23:00:11.558Z,93854.03
2024-02-12T23:02:38.213Z,93856.22
2024-02-12T23:05:05.358Z,93856.38
2024-02-12T23:07:32.178Z,93864.50
2024-02-12T23:10:00.349Z,93859.38
2024-02-12T23:12:27.167Z,93871.47
2024-02-12T23:14:54.036Z,93869.75
2024-02-12T23:17:20.697Z,93873.94
2024-02-12T23:19:47.518Z,93874.59
2024-02-12T23:22:14.381Z,93883.94
2024-02-12T23:24:40.939Z,93884.81
2024-02-12T23:27:08.887Z,93892.00
2024-02-12T23:29:35.519Z,93901.59
2024-02-12T23:32:02.107Z,93897.66
2024-02-12T23:34:28.945Z,93908.44
2024-02-12T23:36:55.661Z,93907.72
2024-02-12T23:39:22.232Z,93911.31
2024-02-12T23:41:49.027Z,93918.59
2024-02-12T23:44:16.999Z,93918.22
2024-02-12T23:46:43.556Z,93929.03
2024-02-12T23:49:10.319Z,93931.59
2024-02-12T23:51:37.004Z,93932.38
2024-02-12T23:54:03.725Z,93937.78
2024-02-12T23:56:30.294Z,93928.72
2024-02-12T23:58:56.900Z,93935.59
